Terminal Aerodrome Forecast
Issued by NWS

Home | Current Version | Previous Version | Graphics & Text | Print | Product List | Glossary On
Versions: 1 2 3 4 5 6 7 8 9 10 11 12 13 14 15 16 17 18 19 20 21 22 23 24 25
000
FTUS43 KMPX 031509 AAB
TAFAXN
TAF AMD
KAXN 031509Z 0315/0412 13012KT 2SM BR BKN003 OVC015
     FM031600 12014KT P6SM SCT015
     FM040600 12008KT 4SM BR SCT004=

USA.gov is the U.S. government's official web portal to all federal, state and local government web resources and services.